sensor_id;sensor_type;location;lat;lon;timestamp;P1;durP1;ratioP1;P2;durP2;ratioP2
76475;SDS011;65308;50.078;14.854;2023-03-01T00:01:42;55.83;;;24.60;;
76475;SDS011;65308;50.078;14.854;2023-03-01T00:04:09;50.65;;;23.17;;
76475;SDS011;65308;50.078;14.854;2023-03-01T00:06:37;50.05;;;21.55;;
76475;SDS011;65308;50.078;14.854;2023-03-01T00:09:04;53.95;;;22.75;;
76475;SDS011;65308;50.078;14.854;2023-03-01T00:14:01;46.90;;;22.48;;
76475;SDS011;65308;50.078;14.854;2023-03-01T00:16:30;56.53;;;23.35;;
76475;SDS011;65308;50.078;14.854;2023-03-01T00:18:59;55.05;;;23.55;;
76475;SDS011;65308;50.078;14.854;2023-03-01T00:21:26;61.30;;;26.83;;
76475;SDS011;65308;50.078;14.854;2023-03-01T00:23:55;54.30;;;22.42;;
76475;SDS011;65308;50.078;14.854;2023-03-01T00:26:22;51.55;;;22.02;;
76475;SDS011;65308;50.078;14.854;2023-03-01T00:28:50;57.35;;;23.00;;
76475;SDS011;65308;50.078;14.854;2023-03-01T00:31:19;54.97;;;23.42;;
76475;SDS011;65308;50.078;14.854;2023-03-01T00:33:47;54.58;;;22.08;;
76475;SDS011;65308;50.078;14.854;2023-03-01T00:36:15;46.30;;;19.27;;
76475;SDS011;65308;50.078;14.854;2023-03-01T00:38:43;52.63;;;21.58;;
76475;SDS011;65308;50.078;14.854;2023-03-01T00:41:15;43.55;;;20.75;;
76475;SDS011;65308;50.078;14.854;2023-03-01T00:43:44;48.10;;;21.65;;
76475;SDS011;65308;50.078;14.854;2023-03-01T00:48:41;42.85;;;19.77;;
76475;SDS011;65308;50.078;14.854;2023-03-01T00:51:08;50.20;;;21.88;;
76475;SDS011;65308;50.078;14.854;2023-03-01T00:53:36;50.33;;;20.98;;
76475;SDS011;65308;50.078;14.854;2023-03-01T00:56:04;47.80;;;20.10;;
76475;SDS011;65308;50.078;14.854;2023-03-01T00:58:33;49.05;;;20.65;;
76475;SDS011;65308;50.078;14.854;2023-03-01T01:01:01;85.50;;;33.20;;
76475;SDS011;65308;50.078;14.854;2023-03-01T01:03:42;66.10;;;26.75;;
76475;SDS011;65308;50.078;14.854;2023-03-01T01:06:12;60.92;;;22.98;;
76475;SDS011;65308;50.078;14.854;2023-03-01T01:08:40;46.17;;;17.95;;
76475;SDS011;65308;50.078;14.854;2023-03-01T01:11:11;60.28;;;22.95;;
76475;SDS011;65308;50.078;14.854;2023-03-01T01:13:41;38.63;;;17.95;;
76475;SDS011;65308;50.078;14.854;2023-03-01T01:16:09;41.60;;;18.95;;
76475;SDS011;65308;50.078;14.854;2023-03-01T01:18:36;35.92;;;17.23;;
76475;SDS011;65308;50.078;14.854;2023-03-01T01:21:03;37.83;;;17.33;;
76475;SDS011;65308;50.078;14.854;2023-03-01T01:23:31;47.75;;;18.42;;
76475;SDS011;65308;50.078;14.854;2023-03-01T01:26:02;42.53;;;19.17;;
76475;SDS011;65308;50.078;14.854;2023-03-01T01:28:30;38.38;;;17.17;;
76475;SDS011;65308;50.078;14.854;2023-03-01T01:30:58;47.55;;;20.77;;
76475;SDS011;65308;50.078;14.854;2023-03-01T01:35:51;50.90;;;20.02;;
76475;SDS011;65308;50.078;14.854;2023-03-01T01:38:18;40.85;;;17.42;;
76475;SDS011;65308;50.078;14.854;2023-03-01T01:40:46;38.75;;;17.10;;
76475;SDS011;65308;50.078;14.854;2023-03-01T01:45:44;40.22;;;18.13;;
76475;SDS011;65308;50.078;14.854;2023-03-01T01:48:12;43.67;;;19.17;;
76475;SDS011;65308;50.078;14.854;2023-03-01T01:55:45;41.50;;;17.00;;
76475;SDS011;65308;50.078;14.854;2023-03-01T01:58:15;37.88;;;16.80;;
76475;SDS011;65308;50.078;14.854;2023-03-01T02:00:48;37.40;;;16.48;;
76475;SDS011;65308;50.078;14.854;2023-03-01T02:13:33;42.65;;;18.13;;
76475;SDS011;65308;50.078;14.854;2023-03-01T02:16:02;51.83;;;19.60;;
76475;SDS011;65308;50.078;14.854;2023-03-01T02:18:30;41.20;;;18.83;;
76475;SDS011;65308;50.078;14.854;2023-03-01T02:21:01;41.13;;;15.98;;
76475;SDS011;65308;50.078;14.854;2023-03-01T02:23:34;40.08;;;17.63;;
76475;SDS011;65308;50.078;14.854;2023-03-01T02:26:09;40.33;;;16.70;;
76475;SDS011;65308;50.078;14.854;2023-03-01T02:28:42;40.53;;;16.48;;
76475;SDS011;65308;50.078;14.854;2023-03-01T02:31:10;38.67;;;16.45;;
76475;SDS011;65308;50.078;14.854;2023-03-01T02:33:59;44.47;;;17.05;;
76475;SDS011;65308;50.078;14.854;2023-03-01T02:36:30;41.03;;;18.20;;
76475;SDS011;65308;50.078;14.854;2023-03-01T02:39:02;46.85;;;22.33;;
76475;SDS011;65308;50.078;14.854;2023-03-01T02:41:31;42.38;;;18.05;;
76475;SDS011;65308;50.078;14.854;2023-03-01T02:44:02;35.63;;;16.90;;
76475;SDS011;65308;50.078;14.854;2023-03-01T02:46:29;29.50;;;15.35;;
76475;SDS011;65308;50.078;14.854;2023-03-01T02:48:57;35.58;;;15.10;;
76475;SDS011;65308;50.078;14.854;2023-03-01T02:51:26;34.08;;;13.55;;
76475;SDS011;65308;50.078;14.854;2023-03-01T02:54:10;48.85;;;18.80;;
76475;SDS011;65308;50.078;14.854;2023-03-01T02:56:41;44.00;;;19.10;;
76475;SDS011;65308;50.078;14.854;2023-03-01T02:59:14;43.38;;;18.80;;
76475;SDS011;65308;50.078;14.854;2023-03-01T03:04:14;43.83;;;17.40;;
76475;SDS011;65308;50.078;14.854;2023-03-01T03:06:43;47.13;;;18.88;;
76475;SDS011;65308;50.078;14.854;2023-03-01T03:09:10;43.75;;;16.73;;
76475;SDS011;65308;50.078;14.854;2023-03-01T03:11:37;46.05;;;17.65;;
76475;SDS011;65308;50.078;14.854;2023-03-01T03:14:06;41.88;;;17.73;;
76475;SDS011;65308;50.078;14.854;2023-03-01T03:16:40;46.63;;;18.67;;
76475;SDS011;65308;50.078;14.854;2023-03-01T03:19:08;41.03;;;17.10;;
76475;SDS011;65308;50.078;14.854;2023-03-01T03:21:34;38.90;;;17.30;;
76475;SDS011;65308;50.078;14.854;2023-03-01T03:24:05;38.60;;;16.27;;
76475;SDS011;65308;50.078;14.854;2023-03-01T03:26:32;41.75;;;17.88;;
76475;SDS011;65308;50.078;14.854;2023-03-01T03:28:59;39.38;;;17.60;;
76475;SDS011;65308;50.078;14.854;2023-03-01T03:31:26;42.53;;;17.77;;
76475;SDS011;65308;50.078;14.854;2023-03-01T03:33:54;42.08;;;18.67;;
76475;SDS011;65308;50.078;14.854;2023-03-01T03:36:22;37.50;;;16.23;;
76475;SDS011;65308;50.078;14.854;2023-03-01T03:38:50;40.25;;;17.02;;
76475;SDS011;65308;50.078;14.854;2023-03-01T03:41:17;37.90;;;16.38;;
76475;SDS011;65308;50.078;14.854;2023-03-01T03:43:48;35.75;;;17.33;;
76475;SDS011;65308;50.078;14.854;2023-03-01T03:46:15;43.85;;;18.42;;
76475;SDS011;65308;50.078;14.854;2023-03-01T03:48:42;41.08;;;17.90;;
76475;SDS011;65308;50.078;14.854;2023-03-01T03:51:12;42.10;;;16.85;;
76475;SDS011;65308;50.078;14.854;2023-03-01T03:53:40;35.60;;;14.85;;
76475;SDS011;65308;50.078;14.854;2023-03-01T03:56:08;30.80;;;13.57;;
76475;SDS011;65308;50.078;14.854;2023-03-01T03:58:35;26.52;;;12.10;;
76475;SDS011;65308;50.078;14.854;2023-03-01T04:01:02;33.42;;;14.60;;
76475;SDS011;65308;50.078;14.854;2023-03-01T04:03:30;32.42;;;14.20;;
76475;SDS011;65308;50.078;14.854;2023-03-01T04:05:58;32.47;;;14.32;;
76475;SDS011;65308;50.078;14.854;2023-03-01T04:16:05;38.10;;;15.50;;
76475;SDS011;65308;50.078;14.854;2023-03-01T04:18:32;49.67;;;19.45;;
76475;SDS011;65308;50.078;14.854;2023-03-01T04:20:59;64.45;;;23.85;;
76475;SDS011;65308;50.078;14.854;2023-03-01T04:23:26;55.70;;;20.65;;
76475;SDS011;65308;50.078;14.854;2023-03-01T04:25:53;40.85;;;16.10;;
76475;SDS011;65308;50.078;14.854;2023-03-01T04:28:23;50.35;;;20.58;;
76475;SDS011;65308;50.078;14.854;2023-03-01T04:30:51;43.20;;;16.95;;
76475;SDS011;65308;50.078;14.854;2023-03-01T04:33:19;44.40;;;17.77;;
76475;SDS011;65308;50.078;14.854;2023-03-01T04:35:49;40.60;;;16.25;;
76475;SDS011;65308;50.078;14.854;2023-03-01T04:38:16;33.17;;;14.88;;
76475;SDS011;65308;50.078;14.854;2023-03-01T04:40:43;39.15;;;15.35;;
76475;SDS011;65308;50.078;14.854;2023-03-01T04:43:11;42.28;;;16.48;;
76475;SDS011;65308;50.078;14.854;2023-03-01T04:45:42;38.20;;;15.88;;
76475;SDS011;65308;50.078;14.854;2023-03-01T04:48:10;34.25;;;15.07;;
76475;SDS011;65308;50.078;14.854;2023-03-01T04:50:41;49.83;;;17.08;;
76475;SDS011;65308;50.078;14.854;2023-03-01T04:53:11;46.75;;;19.55;;
76475;SDS011;65308;50.078;14.854;2023-03-01T04:55:37;43.13;;;19.25;;
76475;SDS011;65308;50.078;14.854;2023-03-01T04:58:04;43.25;;;17.00;;
76475;SDS011;65308;50.078;14.854;2023-03-01T05:00:31;39.20;;;17.33;;
76475;SDS011;65308;50.078;14.854;2023-03-01T05:02:59;39.90;;;16.05;;
76475;SDS011;65308;50.078;14.854;2023-03-01T05:05:27;36.45;;;15.32;;
76475;SDS011;65308;50.078;14.854;2023-03-01T05:07:57;39.85;;;15.40;;
76475;SDS011;65308;50.078;14.854;2023-03-01T05:10:25;38.58;;;15.68;;
76475;SDS011;65308;50.078;14.854;2023-03-01T05:12:54;36.42;;;15.80;;
76475;SDS011;65308;50.078;14.854;2023-03-01T05:15:22;32.60;;;14.25;;
76475;SDS011;65308;50.078;14.854;2023-03-01T05:20:17;35.15;;;13.60;;
76475;SDS011;65308;50.078;14.854;2023-03-01T05:22:56;36.88;;;14.23;;
76475;SDS011;65308;50.078;14.854;2023-03-01T05:26:12;31.88;;;13.82;;
76475;SDS011;65308;50.078;14.854;2023-03-01T05:28:53;37.75;;;15.60;;
76475;SDS011;65308;50.078;14.854;2023-03-01T05:31:23;35.88;;;14.93;;
76475;SDS011;65308;50.078;14.854;2023-03-01T05:33:55;34.22;;;15.05;;
76475;SDS011;65308;50.078;14.854;2023-03-01T05:36:28;35.47;;;14.52;;
76475;SDS011;65308;50.078;14.854;2023-03-01T05:38:56;38.90;;;16.50;;
76475;SDS011;65308;50.078;14.854;2023-03-01T05:47:12;38.85;;;14.60;;
76475;SDS011;65308;50.078;14.854;2023-03-01T05:49:43;40.30;;;17.15;;
76475;SDS011;65308;50.078;14.854;2023-03-01T05:52:11;39.33;;;18.23;;
76475;SDS011;65308;50.078;14.854;2023-03-01T05:54:51;36.95;;;14.85;;
76475;SDS011;65308;50.078;14.854;2023-03-01T05:57:18;39.45;;;14.68;;
76475;SDS011;65308;50.078;14.854;2023-03-01T05:59:46;33.75;;;15.00;;
76475;SDS011;65308;50.078;14.854;2023-03-01T07:43:37;42.03;;;27.02;;
76475;SDS011;65308;50.078;14.854;2023-03-01T07:46:26;40.03;;;25.92;;
76475;SDS011;65308;50.078;14.854;2023-03-01T07:48:57;46.25;;;34.85;;
76475;SDS011;65308;50.078;14.854;2023-03-01T07:51:28;51.58;;;37.33;;
76475;SDS011;65308;50.078;14.854;2023-03-01T07:53:58;44.08;;;30.42;;
76475;SDS011;65308;50.078;14.854;2023-03-01T07:56:28;35.08;;;24.38;;
76475;SDS011;65308;50.078;14.854;2023-03-01T08:01:29;40.47;;;29.08;;
76475;SDS011;65308;50.078;14.854;2023-03-01T08:03:56;40.22;;;30.75;;
76475;SDS011;65308;50.078;14.854;2023-03-01T08:06:23;31.63;;;24.00;;
76475;SDS011;65308;50.078;14.854;2023-03-01T08:09:04;37.40;;;28.13;;
76475;SDS011;65308;50.078;14.854;2023-03-01T08:11:34;32.13;;;23.30;;
76475;SDS011;65308;50.078;14.854;2023-03-01T08:14:10;33.28;;;22.60;;
76475;SDS011;65308;50.078;14.854;2023-03-01T08:16:38;32.97;;;23.73;;
76475;SDS011;65308;50.078;14.854;2023-03-01T08:19:05;36.90;;;26.98;;
76475;SDS011;65308;50.078;14.854;2023-03-01T08:21:38;36.90;;;26.60;;
76475;SDS011;65308;50.078;14.854;2023-03-01T08:24:05;31.85;;;24.05;;
76475;SDS011;65308;50.078;14.854;2023-03-01T08:26:35;39.80;;;28.70;;
76475;SDS011;65308;50.078;14.854;2023-03-01T08:29:02;33.78;;;25.63;;
76475;SDS011;65308;50.078;14.854;2023-03-01T08:39:08;32.72;;;25.02;;
76475;SDS011;65308;50.078;14.854;2023-03-01T08:41:39;37.92;;;27.38;;
76475;SDS011;65308;50.078;14.854;2023-03-01T08:44:06;43.67;;;33.97;;
76475;SDS011;65308;50.078;14.854;2023-03-01T08:46:34;31.10;;;24.45;;
76475;SDS011;65308;50.078;14.854;2023-03-01T08:49:03;30.35;;;22.75;;
76475;SDS011;65308;50.078;14.854;2023-03-01T08:51:34;29.23;;;22.80;;
76475;SDS011;65308;50.078;14.854;2023-03-01T08:54:01;27.25;;;21.20;;
76475;SDS011;65308;50.078;14.854;2023-03-01T08:56:30;29.27;;;22.13;;
76475;SDS011;65308;50.078;14.854;2023-03-01T08:58:56;28.80;;;21.45;;
76475;SDS011;65308;50.078;14.854;2023-03-01T09:01:23;39.55;;;27.92;;
76475;SDS011;65308;50.078;14.854;2023-03-01T09:03:50;30.13;;;20.70;;
76475;SDS011;65308;50.078;14.854;2023-03-01T09:06:16;38.47;;;27.50;;
76475;SDS011;65308;50.078;14.854;2023-03-01T09:08:44;30.23;;;22.90;;
76475;SDS011;65308;50.078;14.854;2023-03-01T09:11:12;28.23;;;21.27;;
76475;SDS011;65308;50.078;14.854;2023-03-01T09:13:45;28.20;;;20.63;;
76475;SDS011;65308;50.078;14.854;2023-03-01T09:16:12;29.23;;;20.92;;
76475;SDS011;65308;50.078;14.854;2023-03-01T09:18:40;27.88;;;20.85;;
76475;SDS011;65308;50.078;14.854;2023-03-01T09:21:08;26.50;;;20.60;;
76475;SDS011;65308;50.078;14.854;2023-03-01T09:23:38;34.97;;;23.33;;
76475;SDS011;65308;50.078;14.854;2023-03-01T09:26:06;38.28;;;25.13;;
76475;SDS011;65308;50.078;14.854;2023-03-01T09:28:34;29.25;;;20.10;;
76475;SDS011;65308;50.078;14.854;2023-03-01T09:31:04;30.73;;;22.48;;
76475;SDS011;65308;50.078;14.854;2023-03-01T09:33:33;33.75;;;23.40;;
76475;SDS011;65308;50.078;14.854;2023-03-01T09:36:00;32.85;;;22.85;;
76475;SDS011;65308;50.078;14.854;2023-03-01T09:38:29;29.05;;;21.30;;
76475;SDS011;65308;50.078;14.854;2023-03-01T09:40:56;29.05;;;21.23;;
76475;SDS011;65308;50.078;14.854;2023-03-01T09:43:23;31.08;;;22.20;;
76475;SDS011;65308;50.078;14.854;2023-03-01T09:45:55;30.77;;;21.17;;
76475;SDS011;65308;50.078;14.854;2023-03-01T09:48:28;27.45;;;18.90;;
76475;SDS011;65308;50.078;14.854;2023-03-01T09:50:59;31.35;;;21.33;;
76475;SDS011;65308;50.078;14.854;2023-03-01T09:56:02;31.48;;;21.17;;
76475;SDS011;65308;50.078;14.854;2023-03-01T09:58:37;29.45;;;19.70;;
76475;SDS011;65308;50.078;14.854;2023-03-01T10:01:10;28.67;;;20.00;;
76475;SDS011;65308;50.078;14.854;2023-03-01T10:03:55;27.45;;;17.77;;
76475;SDS011;65308;50.078;14.854;2023-03-01T10:06:29;28.67;;;18.85;;
76475;SDS011;65308;50.078;14.854;2023-03-01T10:09:00;29.35;;;17.77;;
76475;SDS011;65308;50.078;14.854;2023-03-01T10:14:01;24.38;;;15.30;;
76475;SDS011;65308;50.078;14.854;2023-03-01T10:16:38;25.48;;;16.40;;
76475;SDS011;65308;50.078;14.854;2023-03-01T10:19:11;24.38;;;15.50;;
76475;SDS011;65308;50.078;14.854;2023-03-01T10:21:42;27.38;;;16.17;;
76475;SDS011;65308;50.078;14.854;2023-03-01T10:24:15;25.95;;;15.68;;
76475;SDS011;65308;50.078;14.854;2023-03-01T10:26:52;29.27;;;17.38;;
76475;SDS011;65308;50.078;14.854;2023-03-01T10:29:23;26.83;;;16.15;;
76475;SDS011;65308;50.078;14.854;2023-03-01T10:32:00;23.27;;;15.02;;
76475;SDS011;65308;50.078;14.854;2023-03-01T10:39:31;25.40;;;14.48;;
76475;SDS011;65308;50.078;14.854;2023-03-01T10:41:58;23.85;;;13.75;;
76475;SDS011;65308;50.078;14.854;2023-03-01T10:44:36;23.73;;;14.65;;
76475;SDS011;65308;50.078;14.854;2023-03-01T10:47:16;24.70;;;13.80;;
76475;SDS011;65308;50.078;14.854;2023-03-01T10:49:57;22.80;;;14.15;;
76475;SDS011;65308;50.078;14.854;2023-03-01T10:52:33;21.80;;;13.70;;
76475;SDS011;65308;50.078;14.854;2023-03-01T11:02:45;24.23;;;13.90;;
76475;SDS011;65308;50.078;14.854;2023-03-01T11:05:20;25.40;;;13.50;;
76475;SDS011;65308;50.078;14.854;2023-03-01T11:07:53;22.80;;;13.30;;
76475;SDS011;65308;50.078;14.854;2023-03-01T11:10:26;23.20;;;14.02;;
76475;SDS011;65308;50.078;14.854;2023-03-01T11:13:07;23.75;;;13.38;;
76475;SDS011;65308;50.078;14.854;2023-03-01T11:15:57;23.92;;;14.27;;
76475;SDS011;65308;50.078;14.854;2023-03-01T11:20:59;20.63;;;12.68;;
76475;SDS011;65308;50.078;14.854;2023-03-01T11:23:32;21.75;;;12.57;;
76475;SDS011;65308;50.078;14.854;2023-03-01T11:26:15;23.20;;;12.38;;
76475;SDS011;65308;50.078;14.854;2023-03-01T11:28:47;21.10;;;11.98;;
76475;SDS011;65308;50.078;14.854;2023-03-01T11:31:23;21.25;;;12.10;;
76475;SDS011;65308;50.078;14.854;2023-03-01T11:33:56;22.50;;;13.35;;
76475;SDS011;65308;50.078;14.854;2023-03-01T11:36:32;21.17;;;12.43;;
76475;SDS011;65308;50.078;14.854;2023-03-01T11:39:03;26.98;;;13.27;;
76475;SDS011;65308;50.078;14.854;2023-03-01T11:41:58;23.13;;;12.48;;
76475;SDS011;65308;50.078;14.854;2023-03-01T11:44:30;20.50;;;11.98;;
76475;SDS011;65308;50.078;14.854;2023-03-01T11:47:07;21.33;;;11.95;;
76475;SDS011;65308;50.078;14.854;2023-03-01T11:50:03;21.98;;;12.50;;
76475;SDS011;65308;50.078;14.854;2023-03-01T11:52:44;20.05;;;11.63;;
76475;SDS011;65308;50.078;14.854;2023-03-01T11:57:58;19.05;;;10.65;;
76475;SDS011;65308;50.078;14.854;2023-03-01T12:06:49;19.42;;;10.70;;
76475;SDS011;65308;50.078;14.854;2023-03-01T12:09:27;19.80;;;11.80;;
76475;SDS011;65308;50.078;14.854;2023-03-01T12:12:07;21.20;;;11.18;;
76475;SDS011;65308;50.078;14.854;2023-03-01T12:15:04;19.02;;;10.63;;
76475;SDS011;65308;50.078;14.854;2023-03-01T12:17:59;18.67;;;10.93;;
76475;SDS011;65308;50.078;14.854;2023-03-01T12:20:45;18.20;;;10.43;;
76475;SDS011;65308;50.078;14.854;2023-03-01T12:23:28;18.83;;;10.75;;
76475;SDS011;65308;50.078;14.854;2023-03-01T12:28:48;17.58;;;10.45;;
76475;SDS011;65308;50.078;14.854;2023-03-01T12:31:41;16.98;;;10.75;;
76475;SDS011;65308;50.078;14.854;2023-03-01T12:34:28;20.88;;;10.63;;
76475;SDS011;65308;50.078;14.854;2023-03-01T12:37:18;18.30;;;10.52;;
76475;SDS011;65308;50.078;14.854;2023-03-01T12:39:55;16.70;;;9.63;;
76475;SDS011;65308;50.078;14.854;2023-03-01T12:42:39;20.70;;;10.52;;
76475;SDS011;65308;50.078;14.854;2023-03-01T12:45:32;20.08;;;10.15;;
76475;SDS011;65308;50.078;14.854;2023-03-01T12:48:13;17.70;;;9.82;;
76475;SDS011;65308;50.078;14.854;2023-03-01T12:54:14;19.55;;;10.43;;
76475;SDS011;65308;50.078;14.854;2023-03-01T12:56:47;19.10;;;10.57;;
76475;SDS011;65308;50.078;14.854;2023-03-01T13:05:46;18.50;;;10.63;;
76475;SDS011;65308;50.078;14.854;2023-03-01T13:08:27;19.45;;;10.88;;
76475;SDS011;65308;50.078;14.854;2023-03-01T13:11:00;18.30;;;11.05;;
76475;SDS011;65308;50.078;14.854;2023-03-01T13:13:29;19.42;;;11.15;;
76475;SDS011;65308;50.078;14.854;2023-03-01T13:15:56;18.58;;;10.75;;
76475;SDS011;65308;50.078;14.854;2023-03-01T13:18:31;21.30;;;10.40;;
76475;SDS011;65308;50.078;14.854;2023-03-01T13:21:03;19.58;;;11.82;;
76475;SDS011;65308;50.078;14.854;2023-03-01T13:23:33;18.85;;;10.80;;
76475;SDS011;65308;50.078;14.854;2023-03-01T13:26:07;15.93;;;9.82;;
76475;SDS011;65308;50.078;14.854;2023-03-01T13:28:38;16.88;;;10.15;;
76475;SDS011;65308;50.078;14.854;2023-03-01T13:34:39;19.10;;;10.45;;
76475;SDS011;65308;50.078;14.854;2023-03-01T13:37:17;19.10;;;11.20;;
76475;SDS011;65308;50.078;14.854;2023-03-01T13:39:46;18.10;;;10.30;;
76475;SDS011;65308;50.078;14.854;2023-03-01T13:42:30;17.52;;;10.13;;
76475;SDS011;65308;50.078;14.854;2023-03-01T13:45:01;18.90;;;11.05;;
76475;SDS011;65308;50.078;14.854;2023-03-01T13:47:29;16.88;;;10.30;;
76475;SDS011;65308;50.078;14.854;2023-03-01T13:50:01;21.83;;;10.95;;
76475;SDS011;65308;50.078;14.854;2023-03-01T13:52:39;19.15;;;10.90;;
76475;SDS011;65308;50.078;14.854;2023-03-01T13:55:15;15.90;;;9.05;;
76475;SDS011;65308;50.078;14.854;2023-03-01T13:57:45;16.50;;;9.80;;
76475;SDS011;65308;50.078;14.854;2023-03-01T14:00:32;17.05;;;9.95;;
76475;SDS011;65308;50.078;14.854;2023-03-01T14:03:04;16.80;;;10.27;;
76475;SDS011;65308;50.078;14.854;2023-03-01T14:05:38;17.50;;;10.05;;
76475;SDS011;65308;50.078;14.854;2023-03-01T14:08:20;16.27;;;9.63;;
76475;SDS011;65308;50.078;14.854;2023-03-01T14:10:54;17.80;;;10.40;;
76475;SDS011;65308;50.078;14.854;2023-03-01T14:13:57;16.73;;;9.38;;
76475;SDS011;65308;50.078;14.854;2023-03-01T14:16:36;17.42;;;9.93;;
76475;SDS011;65308;50.078;14.854;2023-03-01T14:19:13;15.10;;;10.27;;
76475;SDS011;65308;50.078;14.854;2023-03-01T14:21:45;16.50;;;9.25;;
76475;SDS011;65308;50.078;14.854;2023-03-01T14:24:20;17.38;;;9.82;;
76475;SDS011;65308;50.078;14.854;2023-03-01T14:26:51;16.00;;;9.25;;
76475;SDS011;65308;50.078;14.854;2023-03-01T14:29:35;18.08;;;10.25;;
76475;SDS011;65308;50.078;14.854;2023-03-01T14:32:10;17.33;;;10.00;;
76475;SDS011;65308;50.078;14.854;2023-03-01T14:34:43;19.80;;;9.60;;
76475;SDS011;65308;50.078;14.854;2023-03-01T14:37:11;14.98;;;9.25;;
76475;SDS011;65308;50.078;14.854;2023-03-01T14:39:45;20.17;;;9.70;;
76475;SDS011;65308;50.078;14.854;2023-03-01T14:42:13;16.33;;;9.52;;
76475;SDS011;65308;50.078;14.854;2023-03-01T14:44:41;18.13;;;10.70;;
76475;SDS011;65308;50.078;14.854;2023-03-01T14:47:10;16.38;;;9.30;;
76475;SDS011;65308;50.078;14.854;2023-03-01T14:49:40;17.00;;;9.43;;
76475;SDS011;65308;50.078;14.854;2023-03-01T14:52:17;14.80;;;8.48;;
76475;SDS011;65308;50.078;14.854;2023-03-01T14:57:22;16.58;;;9.70;;
76475;SDS011;65308;50.078;14.854;2023-03-01T14:59:54;18.73;;;10.45;;
76475;SDS011;65308;50.078;14.854;2023-03-01T15:02:26;14.20;;;7.97;;
76475;SDS011;65308;50.078;14.854;2023-03-01T15:04:58;17.33;;;9.30;;
76475;SDS011;65308;50.078;14.854;2023-03-01T15:07:31;15.40;;;8.50;;
76475;SDS011;65308;50.078;14.854;2023-03-01T15:10:03;41.50;;;15.90;;
76475;SDS011;65308;50.078;14.854;2023-03-01T15:12:38;15.88;;;8.50;;
76475;SDS011;65308;50.078;14.854;2023-03-01T15:18:03;16.77;;;8.18;;
76475;SDS011;65308;50.078;14.854;2023-03-01T15:20:35;14.50;;;8.00;;
76475;SDS011;65308;50.078;14.854;2023-03-01T15:23:05;15.00;;;9.63;;
76475;SDS011;65308;50.078;14.854;2023-03-01T15:25:46;17.05;;;9.43;;
76475;SDS011;65308;50.078;14.854;2023-03-01T15:31:00;14.60;;;8.43;;
76475;SDS011;65308;50.078;14.854;2023-03-01T15:33:33;16.15;;;9.40;;
76475;SDS011;65308;50.078;14.854;2023-03-01T15:39:00;17.23;;;8.90;;
76475;SDS011;65308;50.078;14.854;2023-03-01T15:47:52;16.60;;;9.57;;
76475;SDS011;65308;50.078;14.854;2023-03-01T16:06:00;15.27;;;8.95;;
76475;SDS011;65308;50.078;14.854;2023-03-01T16:08:52;15.40;;;9.20;;
76475;SDS011;65308;50.078;14.854;2023-03-01T16:11:53;18.80;;;9.27;;
76475;SDS011;65308;50.078;14.854;2023-03-01T16:14:23;19.45;;;9.98;;
76475;SDS011;65308;50.078;14.854;2023-03-01T16:16:53;17.35;;;9.38;;
76475;SDS011;65308;50.078;14.854;2023-03-01T16:19:33;21.90;;;11.23;;
76475;SDS011;65308;50.078;14.854;2023-03-01T16:40:14;31.25;;;16.55;;
76475;SDS011;65308;50.078;14.854;2023-03-01T16:43:28;17.42;;;10.23;;
76475;SDS011;65308;50.078;14.854;2023-03-01T16:46:17;18.33;;;10.00;;
76475;SDS011;65308;50.078;14.854;2023-03-01T16:49:15;19.38;;;11.35;;
76475;SDS011;65308;50.078;14.854;2023-03-01T16:54:20;20.10;;;11.88;;
76475;SDS011;65308;50.078;14.854;2023-03-01T16:56:49;21.98;;;12.98;;
76475;SDS011;65308;50.078;14.854;2023-03-01T16:59:18;30.25;;;16.60;;
76475;SDS011;65308;50.078;14.854;2023-03-01T17:01:47;35.05;;;17.02;;
76475;SDS011;65308;50.078;14.854;2023-03-01T17:04:24;39.22;;;19.05;;
76475;SDS011;65308;50.078;14.854;2023-03-01T17:06:57;30.58;;;17.30;;
76475;SDS011;65308;50.078;14.854;2023-03-01T17:09:24;29.15;;;14.98;;
76475;SDS011;65308;50.078;14.854;2023-03-01T17:11:52;21.70;;;13.40;;
76475;SDS011;65308;50.078;14.854;2023-03-01T17:14:21;26.77;;;15.10;;
76475;SDS011;65308;50.078;14.854;2023-03-01T17:16:52;46.33;;;18.98;;
76475;SDS011;65308;50.078;14.854;2023-03-01T17:19:23;30.33;;;17.25;;
76475;SDS011;65308;50.078;14.854;2023-03-01T17:21:53;30.13;;;17.70;;
76475;SDS011;65308;50.078;14.854;2023-03-01T17:24:20;34.78;;;17.83;;
76475;SDS011;65308;50.078;14.854;2023-03-01T17:35:50;23.40;;;13.48;;
76475;SDS011;65308;50.078;14.854;2023-03-01T17:38:28;23.38;;;12.05;;
76475;SDS011;65308;50.078;14.854;2023-03-01T17:41:05;26.77;;;14.70;;
76475;SDS011;65308;50.078;14.854;2023-03-01T17:43:40;25.55;;;14.57;;
76475;SDS011;65308;50.078;14.854;2023-03-01T17:46:11;27.73;;;14.23;;
76475;SDS011;65308;50.078;14.854;2023-03-01T17:48:42;40.53;;;19.38;;
76475;SDS011;65308;50.078;14.854;2023-03-01T17:51:15;34.97;;;18.92;;
76475;SDS011;65308;50.078;14.854;2023-03-01T17:53:46;66.05;;;35.92;;
76475;SDS011;65308;50.078;14.854;2023-03-01T17:56:22;37.13;;;20.90;;
76475;SDS011;65308;50.078;14.854;2023-03-01T18:01:35;40.95;;;20.50;;
76475;SDS011;65308;50.078;14.854;2023-03-01T18:04:03;36.53;;;18.13;;
76475;SDS011;65308;50.078;14.854;2023-03-01T18:09:10;36.17;;;18.58;;
76475;SDS011;65308;50.078;14.854;2023-03-01T18:11:49;40.67;;;19.13;;
76475;SDS011;65308;50.078;14.854;2023-03-01T18:14:19;49.97;;;25.85;;
76475;SDS011;65308;50.078;14.854;2023-03-01T18:19:25;44.95;;;21.20;;
76475;SDS011;65308;50.078;14.854;2023-03-01T18:22:11;46.38;;;23.23;;
76475;SDS011;65308;50.078;14.854;2023-03-01T18:50:07;57.20;;;27.00;;
76475;SDS011;65308;50.078;14.854;2023-03-01T18:52:38;52.78;;;26.08;;
76475;SDS011;65308;50.078;14.854;2023-03-01T18:55:06;52.97;;;24.17;;
76475;SDS011;65308;50.078;14.854;2023-03-01T18:57:34;46.28;;;22.25;;
76475;SDS011;65308;50.078;14.854;2023-03-01T19:22:58;87.60;;;37.30;;
76475;SDS011;65308;50.078;14.854;2023-03-01T19:25:25;201.70;;;69.35;;
76475;SDS011;65308;50.078;14.854;2023-03-01T19:27:51;147.93;;;51.58;;
76475;SDS011;65308;50.078;14.854;2023-03-01T19:30:21;155.13;;;55.10;;
76475;SDS011;65308;50.078;14.854;2023-03-01T19:32:48;332.58;;;105.78;;
76475;SDS011;65308;50.078;14.854;2023-03-01T19:35:17;439.50;;;132.40;;
76475;SDS011;65308;50.078;14.854;2023-03-01T19:37:47;138.95;;;49.88;;
76475;SDS011;65308;50.078;14.854;2023-03-01T19:40:16;158.93;;;58.53;;
76475;SDS011;65308;50.078;14.854;2023-03-01T19:42:52;219.10;;;67.15;;
76475;SDS011;65308;50.078;14.854;2023-03-01T19:45:19;444.90;;;126.85;;
76475;SDS011;65308;50.078;14.854;2023-03-01T19:47:46;501.10;;;140.45;;
76475;SDS011;65308;50.078;14.854;2023-03-01T19:50:15;78.65;;;31.92;;
76475;SDS011;65308;50.078;14.854;2023-03-01T19:52:44;48.10;;;24.73;;
76475;SDS011;65308;50.078;14.854;2023-03-01T19:55:14;99.20;;;35.22;;
76475;SDS011;65308;50.078;14.854;2023-03-01T20:01:15;53.47;;;24.52;;